createdAt,value
2017-11-21T00:00:19.967Z,98109.75
2017-11-21T00:02:54.513Z,98104.42
2017-11-21T00:05:32.438Z,98109.98
2017-11-21T00:10:44.974Z,98091.83
2017-11-21T00:13:14.028Z,98083.66
2017-11-21T00:15:46.001Z,98080.84
2017-11-21T00:18:13.500Z,98064.47
2017-11-21T00:20:41.173Z,98065.25
2017-11-21T00:23:08.695Z,98075.08
2017-11-21T00:25:38.042Z,98078.58
2017-11-21T00:28:07.510Z,98080.05
2017-11-21T00:30:35.680Z,98080.06
2017-11-21T00:33:03.235Z,98069.05
2017-11-21T00:35:31.806Z,98070.65
2017-11-21T00:38:01.304Z,98070.91
2017-11-21T00:40:30.456Z,98092.41
2017-11-21T00:42:58.085Z,98090.53
2017-11-21T00:45:26.200Z,98090.13
2017-11-21T00:47:55.904Z,98086.78
2017-11-21T00:50:25.391Z,98093.20
2017-11-21T00:52:53.437Z,98087.59
2017-11-21T00:55:21.404Z,98094.40
2017-11-21T00:57:49.000Z,98098.30
2017-11-21T01:00:16.543Z,98105.68
2017-11-21T01:02:45.634Z,98123.00
2017-11-21T01:05:13.864Z,98129.84
2017-11-21T01:07:41.473Z,98145.30
2017-11-21T01:10:09.268Z,98142.20
2017-11-21T01:12:36.868Z,98153.61
2017-11-21T01:15:04.400Z,98158.30
2017-11-21T01:17:31.923Z,98163.53
2017-11-21T01:19:59.462Z,98161.11
2017-11-21T01:22:27.021Z,98160.19
2017-11-21T01:24:55.233Z,98159.37
2017-11-21T01:27:24.696Z,98156.14
2017-11-21T01:29:52.308Z,98153.21
2017-11-21T01:32:19.859Z,98151.60
2017-11-21T01:34:47.399Z,98153.61
2017-11-21T01:37:14.958Z,98150.38
2017-11-21T01:39:42.481Z,98145.54
2017-11-21T01:42:10.102Z,98143.93
2017-11-21T01:44:37.605Z,98148.92
2017-11-21T01:47:05.133Z,98143.53
2017-11-21T01:49:32.654Z,98140.05
2017-11-21T01:52:00.179Z,98137.21
2017-11-21T01:54:27.711Z,98132.81
2017-11-21T01:56:55.235Z,98133.06
2017-11-21T01:59:22.767Z,98136.41
2017-11-21T02:01:50.287Z,98138.04
2017-11-21T02:04:17.810Z,98128.09
2017-11-21T02:06:45.333Z,98127.55
2017-11-21T02:09:12.864Z,98128.08
2017-11-21T02:11:40.391Z,98128.48
2017-11-21T02:14:07.915Z,98135.36
2017-11-21T02:16:35.428Z,98128.34
2017-11-21T02:19:02.942Z,98123.25
2017-11-21T02:21:30.467Z,98129.83
2017-11-21T02:23:57.975Z,98118.30
2017-11-21T02:26:25.480Z,98124.20
2017-11-21T02:28:52.981Z,98126.47
2017-11-21T02:31:20.465Z,98124.73
2017-11-21T02:33:48.053Z,98133.20
2017-11-21T02:36:15.561Z,98128.21
2017-11-21T02:38:43.087Z,98135.20
2017-11-21T02:41:10.578Z,98123.52
2017-11-21T02:43:38.096Z,98134.02
2017-11-21T02:46:05.628Z,98134.80
2017-11-21T02:48:33.139Z,98137.64
2017-11-21T02:51:00.642Z,98129.97
2017-11-21T02:53:28.159Z,98132.64
2017-11-21T02:55:55.677Z,98129.55
2017-11-21T02:58:23.176Z,98131.18
2017-11-21T03:00:50.750Z,98132.12
2017-11-21T03:03:18.270Z,98146.20
2017-11-21T03:05:46.650Z,98149.42
2017-11-21T03:08:14.163Z,98149.98
2017-11-21T03:10:41.692Z,98146.73
2017-11-21T03:13:09.239Z,98149.84
2017-11-21T03:15:36.765Z,98151.70
2017-11-21T03:18:04.292Z,98147.52
2017-11-21T03:20:43.757Z,98142.41
2017-11-21T03:23:23.267Z,98130.19
2017-11-21T03:28:52.658Z,98140.81
2017-11-21T03:31:20.157Z,98140.25
2017-11-21T03:33:47.696Z,98144.93
2017-11-21T03:36:15.222Z,98139.72
2017-11-21T03:38:42.772Z,98136.33
2017-11-21T03:41:10.284Z,98134.58
2017-11-21T03:43:37.809Z,98137.15
2017-11-21T03:46:05.319Z,98131.38
2017-11-21T03:48:32.820Z,98139.55
2017-11-21T03:51:00.338Z,98129.86
2017-11-21T03:53:27.842Z,98134.13
2017-11-21T03:55:55.367Z,98130.14
2017-11-21T03:58:22.879Z,98128.81
2017-11-21T04:00:54.429Z,98116.00
2017-11-21T04:03:21.930Z,98123.62
2017-11-21T04:05:49.424Z,98123.49
2017-11-21T04:08:16.948Z,98116.22
2017-11-21T04:10:44.470Z,98113.77
2017-11-21T04:13:11.974Z,98112.33
2017-11-21T04:15:39.489Z,98125.25
2017-11-21T04:18:06.990Z,98124.35
2017-11-21T04:20:34.516Z,98130.09
2017-11-21T04:23:02.939Z,98124.31
2017-11-21T04:25:30.439Z,98119.68
2017-11-21T04:27:57.931Z,98117.16
2017-11-21T04:30:25.440Z,98119.62
2017-11-21T04:32:53.039Z,98122.96
2017-11-21T04:35:20.540Z,98123.61
2017-11-21T04:37:48.047Z,98123.82
2017-11-21T04:40:15.566Z,98134.11
2017-11-21T04:42:43.130Z,98134.13
2017-11-21T04:45:10.642Z,98144.80
2017-11-21T04:47:38.157Z,98151.30
2017-11-21T04:50:05.653Z,98156.11
2017-11-21T04:52:33.151Z,98154.12
2017-11-21T04:55:00.691Z,98143.13
2017-11-21T04:57:28.216Z,98147.98
2017-11-21T04:59:55.720Z,98139.91
2017-11-21T05:02:23.227Z,98144.59
2017-11-21T05:04:50.756Z,98144.75
2017-11-21T05:07:18.267Z,98148.20
2017-11-21T05:09:45.820Z,98148.44
2017-11-21T05:12:13.327Z,98137.28
2017-11-21T05:14:40.828Z,98136.63
2017-11-21T05:17:08.354Z,98135.69
2017-11-21T05:19:35.856Z,98123.34
2017-11-21T05:22:03.349Z,98120.97
2017-11-21T05:24:30.843Z,98121.05
2017-11-21T05:26:58.349Z,98121.47
2017-11-21T05:29:25.890Z,98123.33
2017-11-21T05:31:53.514Z,98125.63
2017-11-21T05:34:21.022Z,98126.34
2017-11-21T05:36:48.533Z,98127.89
2017-11-21T05:39:16.042Z,98124.69
2017-11-21T05:41:43.547Z,98121.70
2017-11-21T05:44:11.043Z,98116.83
2017-11-21T05:46:38.522Z,98113.27
2017-11-21T05:49:06.033Z,98115.89
2017-11-21T05:51:33.537Z,98120.78
2017-11-21T05:54:01.035Z,98111.78
2017-11-21T05:56:28.546Z,98107.65
2017-11-21T05:58:56.050Z,98111.56
2017-11-21T06:01:23.572Z,98112.30
2017-11-21T06:03:51.081Z,98108.73
2017-11-21T06:06:18.583Z,98113.14
2017-11-21T06:08:46.076Z,98112.72
2017-11-21T06:11:13.592Z,98116.31
2017-11-21T06:13:41.159Z,98108.69
2017-11-21T06:16:08.678Z,98108.66
2017-11-21T06:18:36.175Z,98107.28
2017-11-21T06:21:03.699Z,98123.52
2017-11-21T06:23:31.198Z,98115.66
2017-11-21T06:25:58.695Z,98120.22
2017-11-21T06:28:26.182Z,98115.80
2017-11-21T06:30:53.691Z,98114.31
2017-11-21T06:33:21.214Z,98106.89
2017-11-21T06:35:48.754Z,98113.75
2017-11-21T06:38:16.253Z,98118.78
2017-11-21T06:40:43.890Z,98119.20
2017-11-21T06:43:11.412Z,98126.31
2017-11-21T06:45:39.059Z,98136.73
2017-11-21T06:48:06.555Z,98134.41
2017-11-21T06:50:34.072Z,98144.86
2017-11-21T06:53:01.600Z,98146.48
2017-11-21T06:55:29.105Z,98155.20
2017-11-21T06:57:56.643Z,98153.88
2017-11-21T07:00:24.211Z,98163.23
2017-11-21T07:02:51.714Z,98165.76
2017-11-21T07:05:19.217Z,98164.12
2017-11-21T07:07:46.736Z,98164.20
2017-11-21T07:10:14.252Z,98161.83
2017-11-21T07:12:41.746Z,98165.14
2017-11-21T07:15:09.271Z,98157.58
2017-11-21T07:17:36.766Z,98155.80
2017-11-21T07:20:04.265Z,98159.38
2017-11-21T07:22:31.762Z,98162.94
2017-11-21T07:24:59.343Z,98163.36
2017-11-21T07:27:26.844Z,98153.42
2017-11-21T07:29:54.333Z,98150.83
2017-11-21T07:32:21.842Z,98158.73
2017-11-21T07:34:49.348Z,98172.50
2017-11-21T07:37:16.843Z,98186.05
2017-11-21T07:39:44.372Z,98182.34
2017-11-21T07:42:11.866Z,98172.48
2017-11-21T07:44:39.394Z,98177.73
2017-11-21T07:47:06.900Z,98184.64
2017-11-21T07:49:34.407Z,98169.60
2017-11-21T07:52:01.925Z,98165.04
2017-11-21T07:54:29.440Z,98178.61
2017-11-21T07:56:56.945Z,98180.80
2017-11-21T07:59:24.478Z,98180.84
2017-11-21T08:01:51.993Z,98184.27
2017-11-21T08:04:19.505Z,98185.49
2017-11-21T08:06:47.023Z,98183.52
2017-11-21T08:09:14.537Z,98189.73
2017-11-21T08:11:42.049Z,98198.08
2017-11-21T08:14:09.538Z,98201.70
2017-11-21T08:16:37.023Z,98191.89
2017-11-21T08:19:04.545Z,98193.23
2017-11-21T08:21:32.035Z,98195.22
2017-11-21T08:23:59.570Z,98195.61
2017-11-21T08:26:27.070Z,98195.81
2017-11-21T08:28:54.568Z,98188.85
2017-11-21T08:31:22.077Z,98188.03
2017-11-21T08:33:49.595Z,98179.77
2017-11-21T08:36:17.086Z,98171.28
2017-11-21T08:38:44.611Z,98165.11
2017-11-21T08:41:12.100Z,98178.53
2017-11-21T08:43:39.614Z,98178.58
2017-11-21T08:46:07.186Z,98187.48
2017-11-21T08:48:34.680Z,98177.80
2017-11-21T08:51:02.193Z,98181.30
2017-11-21T08:53:29.700Z,98187.84
2017-11-21T08:55:57.218Z,98201.73
2017-11-21T08:58:24.743Z,98207.66
2017-11-21T09:00:52.243Z,98197.78
2017-11-21T09:03:19.753Z,98191.39
2017-11-21T09:05:47.256Z,98188.61
2017-11-21T09:08:14.759Z,98193.79
2017-11-21T09:10:42.276Z,98199.66
2017-11-21T09:13:09.779Z,98189.14
2017-11-21T09:15:37.295Z,98187.03
2017-11-21T09:18:04.788Z,98186.31
2017-11-21T09:20:32.277Z,98192.98
2017-11-21T09:22:59.768Z,98198.14
2017-11-21T09:25:27.273Z,98208.42
2017-11-21T09:27:54.777Z,98199.17
2017-11-21T09:30:22.276Z,98197.73
2017-11-21T09:32:49.771Z,98190.25
2017-11-21T09:35:17.268Z,98184.75
2017-11-21T09:37:45.771Z,98187.91
2017-11-21T09:40:13.275Z,98185.45
2017-11-21T09:42:40.837Z,98181.00
2017-11-21T09:45:08.340Z,98169.36
2017-11-21T09:47:35.852Z,98168.67
2017-11-21T09:50:03.358Z,98171.34
2017-11-21T09:52:30.876Z,98166.38
2017-11-21T09:54:58.364Z,98158.72
2017-11-21T09:57:25.863Z,98175.00
2017-11-21T09:59:53.476Z,98168.62
2017-11-21T10:02:20.977Z,98158.95
2017-11-21T10:04:48.472Z,98157.84
2017-11-21T10:07:15.976Z,98153.61
2017-11-21T10:09:43.514Z,98159.05
2017-11-21T10:12:11.056Z,98159.81
2017-11-21T10:14:38.569Z,98159.25
2017-11-21T10:17:06.085Z,98163.22
2017-11-21T10:19:33.579Z,98147.28
2017-11-21T10:22:01.100Z,98148.80
2017-11-21T10:24:28.616Z,98152.29
2017-11-21T10:26:56.184Z,98150.70
2017-11-21T10:29:23.684Z,98151.53
2017-11-21T10:31:51.183Z,98144.43
2017-11-21T10:34:18.692Z,98133.14
2017-11-21T10:36:46.215Z,98135.69
2017-11-21T10:39:13.726Z,98131.48
2017-11-21T10:41:41.249Z,98133.10
2017-11-21T10:44:08.755Z,98125.55
2017-11-21T10:46:36.259Z,98124.48
2017-11-21T10:49:03.766Z,98125.69
2017-11-21T10:51:31.358Z,98125.03
2017-11-21T10:53:58.859Z,98130.84
2017-11-21T10:56:26.699Z,98131.45
2017-11-21T10:58:54.220Z,98130.41
2017-11-21T11:01:21.747Z,98134.69
2017-11-21T11:03:49.275Z,98135.06
2017-11-21T11:06:16.808Z,98116.17
2017-11-21T11:08:44.337Z,98116.01
2017-11-21T11:11:11.844Z,98117.46
2017-11-21T11:13:39.347Z,98105.32
2017-11-21T11:16:06.855Z,98094.09
2017-11-21T11:18:34.358Z,98088.91
2017-11-21T11:21:01.870Z,98086.73
2017-11-21T11:23:29.426Z,98082.79
2017-11-21T11:25:56.966Z,98079.09
2017-11-21T11:28:24.484Z,98077.61
2017-11-21T11:30:52.029Z,98073.90
2017-11-21T11:33:19.534Z,98087.24
2017-11-21T11:35:47.041Z,98081.58
2017-11-21T11:38:14.567Z,98077.19
2017-11-21T11:40:42.085Z,98073.45
2017-11-21T11:43:09.614Z,98071.34
2017-11-21T11:45:37.140Z,98065.66
2017-11-21T11:48:04.648Z,98055.41
2017-11-21T11:50:32.151Z,98063.67
2017-11-21T11:52:59.682Z,98057.31
2017-11-21T11:55:27.271Z,98051.31
2017-11-21T11:57:54.775Z,98056.23
2017-11-21T12:00:22.301Z,98060.33
2017-11-21T12:02:49.815Z,98059.38
2017-11-21T12:05:17.318Z,98065.23
2017-11-21T12:07:44.923Z,98061.34
2017-11-21T12:10:12.459Z,98062.41
2017-11-21T12:12:39.973Z,98048.69
2017-11-21T12:15:07.537Z,98051.63
2017-11-21T12:17:35.096Z,98048.67
2017-11-21T12:20:02.601Z,98033.39
2017-11-21T12:22:30.108Z,98045.06
2017-11-21T12:24:57.616Z,98035.08
2017-11-21T12:27:25.172Z,98032.34
2017-11-21T12:29:52.684Z,98033.84
2017-11-21T12:32:20.201Z,98038.20
2017-11-21T12:34:47.705Z,98030.19
2017-11-21T12:37:15.328Z,98037.77
2017-11-21T12:39:42.854Z,98025.63
2017-11-21T12:42:10.474Z,98032.27
2017-11-21T12:44:38.143Z,98020.33
2017-11-21T12:47:05.641Z,98023.62
2017-11-21T12:49:33.171Z,98021.19
2017-11-21T12:52:00.714Z,98027.09
2017-11-21T12:54:28.379Z,98012.63
2017-11-21T12:56:55.946Z,98013.27
2017-11-21T12:59:23.480Z,98018.63
2017-11-21T13:01:51.004Z,98013.95
2017-11-21T13:04:18.573Z,98013.41
2017-11-21T13:06:46.126Z,98008.06
2017-11-21T13:09:13.663Z,98016.38
2017-11-21T13:11:41.170Z,98025.59
2017-11-21T13:14:08.860Z,98021.66
2017-11-21T13:16:36.723Z,98021.91
2017-11-21T13:19:04.351Z,98020.32
2017-11-21T13:21:32.782Z,98016.30
2017-11-21T13:24:00.342Z,98027.81
2017-11-21T13:26:27.878Z,98022.86
2017-11-21T13:28:55.417Z,98018.08
2017-11-21T13:31:22.923Z,98014.11
2017-11-21T13:33:50.420Z,98023.11
2017-11-21T13:36:17.974Z,98020.80
2017-11-21T13:38:45.500Z,98020.32
2017-11-21T13:41:13.012Z,98022.09
2017-11-21T13:43:40.526Z,98025.13
2017-11-21T13:46:08.037Z,98020.30
2017-11-21T13:48:35.668Z,98018.36
2017-11-21T13:51:03.162Z,98019.15
2017-11-21T13:53:30.671Z,98024.36
2017-11-21T13:55:58.315Z,98022.94
2017-11-21T13:58:25.813Z,98008.23
2017-11-21T14:00:53.413Z,98009.83
2017-11-21T14:03:20.961Z,98008.70
2017-11-21T14:05:48.487Z,98008.65
2017-11-21T14:08:16.002Z,98004.06
2017-11-21T14:10:43.534Z,98005.33
2017-11-21T14:13:11.044Z,98003.52
2017-11-21T14:15:38.541Z,98002.54
2017-11-21T14:18:06.045Z,98000.88
2017-11-21T14:20:34.257Z,97995.63
2017-11-21T14:23:01.829Z,97994.94
2017-11-21T14:25:29.358Z,97991.34
2017-11-21T14:27:56.863Z,97992.42
2017-11-21T14:30:24.369Z,97991.88
2017-11-21T14:32:51.877Z,97987.56
2017-11-21T14:35:19.371Z,97985.75
2017-11-21T14:37:46.903Z,97992.83
2017-11-21T14:40:14.410Z,97987.22
2017-11-21T14:42:41.929Z,97984.91
2017-11-21T14:45:09.650Z,97990.08
2017-11-21T14:47:37.178Z,97988.76
2017-11-21T14:50:04.702Z,97978.09
2017-11-21T14:52:32.222Z,97986.13
2017-11-21T14:54:59.722Z,97986.48
2017-11-21T14:57:27.264Z,97980.69
2017-11-21T14:59:54.775Z,97968.30
2017-11-21T15:02:22.280Z,97971.98
2017-11-21T15:04:49.764Z,97971.80
2017-11-21T15:07:17.308Z,97971.20
2017-11-21T15:09:44.870Z,97974.45
2017-11-21T15:12:12.383Z,97974.83
2017-11-21T15:14:39.887Z,97980.81
2017-11-21T15:17:07.424Z,97978.84
2017-11-21T15:19:34.936Z,97976.05
2017-11-21T15:22:02.474Z,97976.06
2017-11-21T15:24:29.973Z,97971.88
2017-11-21T15:26:57.490Z,97972.84
2017-11-21T15:29:25.011Z,97976.05
2017-11-21T15:31:52.527Z,97972.30
2017-11-21T15:34:20.018Z,97980.87
2017-11-21T15:36:47.527Z,97977.40
2017-11-21T15:39:15.069Z,97971.80
2017-11-21T15:41:42.590Z,97968.09
2017-11-21T15:44:10.106Z,97964.62
2017-11-21T15:46:37.612Z,97958.41
2017-11-21T15:49:05.110Z,97967.76
2017-11-21T15:51:32.618Z,97962.38
2017-11-21T15:54:00.125Z,97965.00
2017-11-21T15:56:27.642Z,97975.41
2017-11-21T15:58:55.722Z,97963.34
2017-11-21T16:01:23.240Z,97969.07
2017-11-21T16:03:50.750Z,97969.25
2017-11-21T16:06:18.269Z,97968.33
2017-11-21T16:08:45.791Z,97968.44
2017-11-21T16:11:13.291Z,97963.67
2017-11-21T16:13:40.813Z,97964.63
2017-11-21T16:16:08.337Z,97959.98
2017-11-21T16:18:35.861Z,97958.97
2017-11-21T16:21:03.367Z,97951.95
2017-11-21T16:23:30.879Z,97954.03
2017-11-21T16:25:58.372Z,97952.36
2017-11-21T16:28:25.887Z,97958.89
2017-11-21T16:30:53.391Z,97964.85
2017-11-21T16:33:20.900Z,97968.11
2017-11-21T16:35:49.284Z,97977.93
2017-11-21T16:38:16.795Z,97974.86
2017-11-21T16:40:44.302Z,97972.86
2017-11-21T16:43:11.787Z,97966.82
2017-11-21T16:45:39.298Z,97956.48
2017-11-21T16:48:06.804Z,97958.77
2017-11-21T16:50:34.342Z,97951.60
2017-11-21T16:53:01.894Z,97958.53
2017-11-21T16:55:30.367Z,97960.22
2017-11-21T16:57:57.851Z,97960.30
2017-11-21T17:00:25.386Z,97973.63
2017-11-21T17:02:52.880Z,97978.91
2017-11-21T17:05:20.403Z,97979.66
2017-11-21T17:07:47.915Z,97986.77
2017-11-21T17:10:15.415Z,97993.89
2017-11-21T17:12:42.918Z,97983.97
2017-11-21T17:15:10.460Z,97982.77
2017-11-21T17:17:38.151Z,97976.59
2017-11-21T17:20:05.751Z,97971.92
2017-11-21T17:22:33.310Z,97977.14
2017-11-21T17:25:00.815Z,97983.71
2017-11-21T17:27:29.012Z,97980.91
2017-11-21T17:29:56.528Z,97981.36
2017-11-21T17:32:24.026Z,97973.06
2017-11-21T17:34:51.522Z,97981.83
2017-11-21T17:37:19.041Z,97981.17
2017-11-21T17:39:46.559Z,97986.36
2017-11-21T17:42:14.094Z,97989.91
2017-11-21T17:44:41.655Z,97998.38
2017-11-21T17:47:09.175Z,97997.48
2017-11-21T17:49:36.707Z,97996.64
2017-11-21T17:52:04.222Z,97983.70
2017-11-21T17:54:31.732Z,97972.10
2017-11-21T17:56:59.255Z,97970.17
2017-11-21T17:59:26.761Z,97968.92
2017-11-21T18:01:54.639Z,97961.00
2017-11-21T18:04:22.149Z,97956.91
2017-11-21T18:06:49.646Z,97951.77
2017-11-21T18:09:17.239Z,97952.70
2017-11-21T18:11:44.751Z,97954.91
2017-11-21T18:14:12.263Z,97955.98
2017-11-21T18:16:39.808Z,97965.51
2017-11-21T18:19:08.248Z,97964.17
2017-11-21T18:21:35.761Z,97963.16
2017-11-21T18:24:03.278Z,97966.37
2017-11-21T18:26:30.784Z,97966.13
2017-11-21T18:28:58.630Z,97967.84
2017-11-21T18:31:26.164Z,97975.26
2017-11-21T18:33:53.675Z,97975.68
2017-11-21T18:36:22.985Z,97981.02
2017-11-21T18:38:50.511Z,97975.69
2017-11-21T18:41:18.008Z,97979.86
2017-11-21T18:43:45.494Z,97987.25
2017-11-21T18:46:13.048Z,97986.22
2017-11-21T18:48:40.569Z,97978.19
2017-11-21T18:51:08.099Z,97974.65
2017-11-21T18:53:35.633Z,97974.66
2017-11-21T18:56:03.132Z,97976.55
2017-11-21T18:58:30.767Z,97972.75
2017-11-21T19:00:58.542Z,97963.06
2017-11-21T19:03:26.043Z,97962.67
2017-11-21T19:05:53.589Z,97968.92
2017-11-21T19:08:21.152Z,97957.02
2017-11-21T19:10:48.672Z,97951.42
2017-11-21T19:13:16.208Z,97955.98
2017-11-21T19:15:43.741Z,97958.48
2017-11-21T19:18:11.283Z,97955.31
2017-11-21T19:20:38.782Z,97970.64
2017-11-21T19:23:06.353Z,97975.43
2017-11-21T19:25:33.863Z,97972.57
2017-11-21T19:28:01.471Z,97971.91
2017-11-21T19:30:28.990Z,97978.53
2017-11-21T19:32:56.536Z,97986.57
2017-11-21T19:35:24.082Z,97984.98
2017-11-21T19:37:51.636Z,97987.92
2017-11-21T19:40:19.163Z,97994.27
2017-11-21T19:42:46.685Z,97988.59
2017-11-21T19:45:14.282Z,97984.36
2017-11-21T19:51:03.095Z,97980.44
2017-11-21T19:53:30.616Z,97978.21
2017-11-21T19:55:58.114Z,97976.52
2017-11-21T19:58:25.632Z,97980.57
2017-11-21T20:00:53.150Z,97984.28
2017-11-21T20:03:20.679Z,97991.04
2017-11-21T20:05:48.211Z,97978.91
2017-11-21T20:08:15.721Z,97973.36
2017-11-21T20:10:43.249Z,97966.63
2017-11-21T20:13:10.765Z,97971.92
2017-11-21T20:15:38.305Z,97976.45
2017-11-21T20:18:05.830Z,97980.65
2017-11-21T20:20:33.421Z,97974.71
2017-11-21T20:23:01.062Z,97975.48
2017-11-21T20:25:28.581Z,97978.66
2017-11-21T20:27:56.176Z,97977.05
2017-11-21T20:30:24.232Z,97980.62
2017-11-21T20:32:51.809Z,97977.34
2017-11-21T20:35:19.343Z,97974.41
2017-11-21T20:37:46.910Z,97978.99
2017-11-21T20:40:14.411Z,97979.28
2017-11-21T20:42:41.927Z,97975.59
2017-11-21T20:45:09.464Z,97972.33
2017-11-21T20:47:37.025Z,97967.55
2017-11-21T20:50:04.538Z,97968.98
2017-11-21T20:52:32.055Z,97973.61
2017-11-21T20:54:59.599Z,97980.84
2017-11-21T20:57:27.132Z,97974.19
2017-11-21T20:59:54.707Z,97983.67
2017-11-21T21:02:22.242Z,97977.90
2017-11-21T21:04:49.931Z,97980.28
2017-11-21T21:07:17.458Z,97984.24
2017-11-21T21:09:44.967Z,97983.06
2017-11-21T21:12:12.477Z,97970.59
2017-11-21T21:14:39.978Z,97970.79
2017-11-21T21:17:07.481Z,97955.28
2017-11-21T21:19:35.006Z,97951.41
2017-11-21T21:22:02.523Z,97952.77
2017-11-21T21:24:30.093Z,97951.13
2017-11-21T21:26:57.620Z,97960.48
2017-11-21T21:29:25.145Z,97958.42
2017-11-21T21:31:52.675Z,97965.48
2017-11-21T21:34:20.170Z,97956.78
2017-11-21T21:36:47.697Z,97956.50
2017-11-21T21:39:15.214Z,97962.28
2017-11-21T21:41:42.755Z,97965.64
2017-11-21T21:44:10.287Z,97966.53
2017-11-21T21:46:37.819Z,97961.17
2017-11-21T21:49:05.368Z,97956.69
2017-11-21T21:51:32.880Z,97953.39
2017-11-21T21:54:00.589Z,97954.73
2017-11-21T21:56:28.134Z,97958.05
2017-11-21T21:58:55.655Z,97955.94
2017-11-21T22:01:23.754Z,97956.05
2017-11-21T22:03:51.259Z,97947.41
2017-11-21T22:06:18.803Z,97944.72
2017-11-21T22:08:46.312Z,97950.50
2017-11-21T22:11:13.800Z,97949.69
2017-11-21T22:13:41.318Z,97952.80
2017-11-21T22:16:08.839Z,97952.94
2017-11-21T22:18:36.348Z,97953.23
2017-11-21T22:21:03.881Z,97956.97
2017-11-21T22:23:31.388Z,97948.34
2017-11-21T22:25:58.955Z,97943.12
2017-11-21T22:28:26.467Z,97951.40
2017-11-21T22:30:54.833Z,97956.91
2017-11-21T22:33:29.915Z,97960.89
2017-11-21T22:36:24.618Z,97957.55
2017-11-21T22:41:33.292Z,97947.45
2017-11-21T22:44:00.795Z,97947.92
2017-11-21T22:46:28.304Z,97943.03
2017-11-21T22:48:55.808Z,97944.67
2017-11-21T22:51:23.338Z,97947.37
2017-11-21T22:53:54.687Z,97947.33
2017-11-21T22:56:32.449Z,97952.30
2017-11-21T22:58:59.967Z,97948.81
2017-11-21T23:01:39.702Z,97954.88
2017-11-21T23:04:07.200Z,97939.80
2017-11-21T23:06:34.750Z,97941.86
2017-11-21T23:09:02.262Z,97935.55
2017-11-21T23:11:29.759Z,97945.69
2017-11-21T23:13:57.259Z,97947.11
2017-11-21T23:16:24.775Z,97949.88
2017-11-21T23:18:52.270Z,97939.75
2017-11-21T23:21:19.812Z,97942.97
2017-11-21T23:23:47.339Z,97936.97
2017-11-21T23:26:14.844Z,97931.80
2017-11-21T23:28:42.326Z,97934.13
2017-11-21T23:31:09.818Z,97926.30
2017-11-21T23:33:37.335Z,97932.72
2017-11-21T23:36:05.055Z,97932.58
2017-11-21T23:38:32.566Z,97926.44
2017-11-21T23:41:00.060Z,97927.93
2017-11-21T23:43:27.588Z,97926.57
2017-11-21T23:45:55.099Z,97917.27
2017-11-21T23:48:22.692Z,97923.23
2017-11-21T23:50:50.177Z,97925.16
2017-11-21T23:53:17.680Z,97931.14
2017-11-21T23:55:45.183Z,97925.36
2017-11-21T23:58:12.681Z,97926.30
